createdAt,value
2019-05-22T00:01:44.048Z,12.57
2019-05-22T00:04:15.519Z,12.51
2019-05-22T00:06:52.169Z,12.49
2019-05-22T00:09:31.036Z,12.52
2019-05-22T00:12:03.741Z,12.52
2019-05-22T00:14:38.126Z,12.54
2019-05-22T00:17:27.875Z,12.52
2019-05-22T00:20:08.525Z,12.49
2019-05-22T00:22:45.090Z,12.45
2019-05-22T00:25:16.267Z,12.42
2019-05-22T00:27:48.390Z,12.42
2019-05-22T00:30:29.076Z,12.39
2019-05-22T00:33:01.927Z,12.36
2019-05-22T00:35:40.562Z,12.37
2019-05-22T00:38:16.597Z,12.39
2019-05-22T00:40:47.769Z,12.36
2019-05-22T00:43:21.423Z,12.31
2019-05-22T00:45:55.699Z,12.26
2019-05-22T00:48:41.389Z,12.24
2019-05-22T00:51:30.524Z,12.27
2019-05-22T00:54:19.605Z,12.26
2019-05-22T00:56:53.062Z,12.25
2019-05-22T00:59:29.536Z,12.26
2019-05-22T01:02:22.407Z,12.24
2019-05-22T01:04:52.052Z,12.25
2019-05-22T01:07:28.907Z,12.24
2019-05-22T01:09:59.600Z,12.20
2019-05-22T01:12:38.864Z,12.18
2019-05-22T01:15:21.435Z,12.16
2019-05-22T01:18:09.795Z,12.14
2019-05-22T01:20:41.266Z,12.15
2019-05-22T01:23:16.780Z,12.14
2019-05-22T01:26:00.006Z,12.14
2019-05-22T01:31:33.061Z,12.12
2019-05-22T01:34:08.062Z,12.12
2019-05-22T01:36:41.596Z,12.13
2019-05-22T01:39:15.285Z,12.11
2019-05-22T01:41:46.607Z,12.09
2019-05-22T01:44:17.970Z,12.07
2019-05-22T01:46:48.152Z,12.06
2019-05-22T01:49:18.565Z,12.02
2019-05-22T01:51:47.885Z,12.03
2019-05-22T01:54:18.646Z,12.02
2019-05-22T01:56:48.828Z,12.02
2019-05-22T01:59:19.427Z,12.04
2019-05-22T02:01:48.602Z,12.07
2019-05-22T02:04:19.080Z,12.08
2019-05-22T02:06:48.342Z,12.08
2019-05-22T02:09:24.596Z,12.10
2019-05-22T02:12:00.889Z,12.08
2019-05-22T02:14:30.285Z,12.09
2019-05-22T02:16:59.912Z,12.07
2019-05-22T02:19:29.359Z,12.07
2019-05-22T02:22:00.143Z,12.08
2019-05-22T02:24:29.945Z,12.04
2019-05-22T02:26:58.592Z,12.04
2019-05-22T02:29:29.319Z,12.03
2019-05-22T02:31:58.476Z,12.03
2019-05-22T02:34:28.297Z,12.00
2019-05-22T02:36:57.776Z,11.99
2019-05-22T02:39:32.733Z,11.97
2019-05-22T02:42:06.399Z,11.99
2019-05-22T02:44:36.588Z,11.99
2019-05-22T02:47:19.048Z,12.01
2019-05-22T02:49:39.178Z,12.01
2019-05-22T02:52:10.154Z,11.99
2019-05-22T02:54:39.757Z,11.98
2019-05-22T02:57:10.992Z,11.96
2019-05-22T02:59:42.812Z,11.95
2019-05-22T03:02:16.115Z,11.95
2019-05-22T03:05:04.143Z,11.92
2019-05-22T03:07:35.782Z,11.93
2019-05-22T03:10:07.185Z,11.92
2019-05-22T03:12:36.432Z,11.92
2019-05-22T03:15:07.534Z,11.93
2019-05-22T03:17:38.676Z,11.97
2019-05-22T03:20:11.973Z,11.99
2019-05-22T03:22:47.802Z,11.97
2019-05-22T03:25:18.188Z,11.95
2019-05-22T03:27:50.096Z,11.93
2019-05-22T03:30:42.440Z,11.96
2019-05-22T03:33:19.535Z,11.96
2019-05-22T03:35:56.821Z,11.93
2019-05-22T03:38:26.229Z,11.93
2019-05-22T03:40:55.820Z,11.94
2019-05-22T03:43:27.604Z,11.98
2019-05-22T03:45:57.275Z,12.00
2019-05-22T03:48:30.880Z,12.02
2019-05-22T03:51:12.362Z,12.03
2019-05-22T03:53:43.850Z,11.99
2019-05-22T03:56:13.340Z,11.99
2019-05-22T03:58:42.585Z,11.99
2019-05-22T04:01:12.454Z,12.00
2019-05-22T04:03:41.666Z,12.01
2019-05-22T04:06:12.242Z,11.99
2019-05-22T04:08:41.696Z,11.97
2019-05-22T04:11:13.026Z,11.97
2019-05-22T04:13:42.179Z,11.93
2019-05-22T04:16:13.333Z,11.92
2019-05-22T04:18:43.705Z,11.92
2019-05-22T04:21:15.150Z,11.92
2019-05-22T04:23:44.662Z,11.92
2019-05-22T04:26:20.207Z,11.92
2019-05-22T04:29:06.900Z,11.91
2019-05-22T04:31:58.053Z,11.88
2019-05-22T04:34:28.092Z,11.86
2019-05-22T04:37:04.647Z,11.88
2019-05-22T04:39:37.811Z,11.88
2019-05-22T04:42:08.047Z,11.87
2019-05-22T04:44:40.369Z,11.86
2019-05-22T04:50:18.831Z,11.85
2019-05-22T04:52:49.522Z,11.88
2019-05-22T04:55:21.861Z,11.90
2019-05-22T04:57:51.539Z,11.90
2019-05-22T05:00:25.400Z,11.91
2019-05-22T05:02:54.719Z,11.90
2019-05-22T05:05:25.960Z,11.90
2019-05-22T05:07:56.654Z,11.91
2019-05-22T05:10:39.405Z,11.92
2019-05-22T05:13:07.777Z,11.92
2019-05-22T05:15:37.541Z,11.89
2019-05-22T05:18:06.852Z,11.87
2019-05-22T05:20:35.986Z,11.86
2019-05-22T05:23:05.187Z,11.90
2019-05-22T05:25:43.500Z,11.92
2019-05-22T05:28:13.429Z,11.91
2019-05-22T05:30:42.859Z,11.92
2019-05-22T05:33:20.172Z,11.95
2019-05-22T05:35:59.366Z,11.96
2019-05-22T05:38:38.936Z,11.97
2019-05-22T05:41:08.352Z,11.97
2019-05-22T05:43:37.616Z,11.97
2019-05-22T05:46:07.482Z,11.98
2019-05-22T05:48:43.426Z,11.99
2019-05-22T05:51:16.075Z,12.02
2019-05-22T05:54:22.621Z,12.03
2019-05-22T05:56:50.692Z,12.06
2019-05-22T05:59:26.646Z,12.03
2019-05-22T06:01:56.066Z,12.05
2019-05-22T06:04:34.875Z,12.05
2019-05-22T06:07:16.912Z,12.06
2019-05-22T06:09:48.433Z,12.07
2019-05-22T06:12:17.674Z,12.09
2019-05-22T06:14:47.278Z,12.09
2019-05-22T06:17:33.342Z,12.07
2019-05-22T06:20:08.991Z,12.07
2019-05-22T06:22:38.182Z,12.09
2019-05-22T06:25:08.220Z,12.13
2019-05-22T06:27:45.188Z,12.16
2019-05-22T06:30:21.624Z,12.18
2019-05-22T06:33:14.149Z,12.23
2019-05-22T06:35:44.487Z,12.26
2019-05-22T06:38:33.367Z,12.30
2019-05-22T06:41:02.859Z,12.32
2019-05-22T06:43:35.209Z,12.33
2019-05-22T06:46:09.834Z,12.37
2019-05-22T06:48:38.930Z,12.44
2019-05-22T06:51:19.073Z,12.50
2019-05-22T06:53:39.103Z,12.57
2019-05-22T06:56:08.238Z,12.60
2019-05-22T06:58:37.615Z,12.60
2019-05-22T07:01:10.276Z,12.63
2019-05-22T07:03:39.536Z,12.71
2019-05-22T07:06:09.212Z,12.74
2019-05-22T07:08:39.040Z,12.76
2019-05-22T07:11:09.508Z,12.75
2019-05-22T07:13:39.090Z,12.82
2019-05-22T07:16:08.219Z,12.91
2019-05-22T07:18:37.363Z,12.98
2019-05-22T07:21:07.918Z,13.04
2019-05-22T07:23:37.109Z,13.11
2019-05-22T07:26:06.236Z,13.18
2019-05-22T07:28:36.599Z,13.28
2019-05-22T07:31:07.760Z,13.39
2019-05-22T07:33:57.333Z,13.50
2019-05-22T07:36:27.515Z,13.59
2019-05-22T07:38:56.824Z,13.72
2019-05-22T07:41:26.319Z,13.78
2019-05-22T07:43:55.485Z,13.86
2019-05-22T07:46:24.727Z,13.98
2019-05-22T07:48:54.277Z,14.07
2019-05-22T07:51:24.362Z,14.09
2019-05-22T07:53:53.797Z,14.21
2019-05-22T07:56:23.534Z,14.34
2019-05-22T07:58:58.962Z,14.43
2019-05-22T08:01:27.209Z,14.81
2019-05-22T08:03:57.798Z,15.00
2019-05-22T08:06:27.353Z,15.32
2019-05-22T08:08:57.143Z,15.38
2019-05-22T08:11:27.461Z,15.38
2019-05-22T08:13:57.784Z,15.34
2019-05-22T08:16:27.649Z,15.40
2019-05-22T08:18:56.886Z,15.42
2019-05-22T08:21:26.087Z,15.71
2019-05-22T08:23:55.671Z,16.28
2019-05-22T08:26:26.182Z,16.55
2019-05-22T08:28:58.379Z,16.90
2019-05-22T08:31:27.745Z,16.68
2019-05-22T08:33:56.994Z,16.53
2019-05-22T08:36:26.185Z,16.31
2019-05-22T08:38:56.653Z,16.28
2019-05-22T08:41:29.369Z,16.65
2019-05-22T08:44:15.057Z,16.70
2019-05-22T08:46:31.792Z,16.69
2019-05-22T08:49:01.434Z,16.58
2019-05-22T08:51:30.549Z,17.12
2019-05-22T08:53:59.728Z,17.47
2019-05-22T08:56:35.170Z,17.80
2019-05-22T08:59:18.888Z,17.99
2019-05-22T09:01:38.135Z,18.02
2019-05-22T09:04:08.060Z,18.61
2019-05-22T09:06:37.175Z,18.94
2019-05-22T09:09:07.162Z,19.12
2019-05-22T09:11:36.306Z,19.27
2019-05-22T09:14:05.498Z,19.33
2019-05-22T09:16:34.789Z,19.43
2019-05-22T09:19:04.371Z,19.48
2019-05-22T09:21:32.779Z,19.14
2019-05-22T09:24:04.312Z,18.86
2019-05-22T09:26:33.902Z,18.88
2019-05-22T09:29:03.063Z,19.10
2019-05-22T09:31:32.466Z,19.10
2019-05-22T09:34:01.714Z,19.21
2019-05-22T09:36:31.692Z,19.22
2019-05-22T09:39:00.819Z,19.39
2019-05-22T09:41:29.988Z,19.49
2019-05-22T09:43:59.133Z,18.85
2019-05-22T09:46:28.261Z,19.09
2019-05-22T09:48:57.981Z,19.28
2019-05-22T09:51:27.447Z,19.35
2019-05-22T09:53:56.917Z,19.20
2019-05-22T09:56:26.687Z,19.35
2019-05-22T09:58:55.906Z,19.58
2019-05-22T10:01:25.144Z,19.70
2019-05-22T10:03:54.356Z,19.58
2019-05-22T10:06:23.539Z,19.72
2019-05-22T10:08:52.740Z,19.36
2019-05-22T10:11:22.456Z,19.53
2019-05-22T10:13:51.730Z,19.56
2019-05-22T10:16:21.024Z,19.60
2019-05-22T10:18:53.044Z,19.56
2019-05-22T10:21:22.312Z,19.26
2019-05-22T10:23:51.437Z,19.37
2019-05-22T10:26:21.288Z,19.59
2019-05-22T10:28:50.465Z,19.47
2019-05-22T10:31:21.747Z,19.49
2019-05-22T10:33:52.107Z,19.52
2019-05-22T10:36:21.807Z,19.60
2019-05-22T10:38:50.481Z,19.74
2019-05-22T10:41:19.808Z,19.90
2019-05-22T10:43:49.395Z,20.05
2019-05-22T10:46:17.867Z,20.13
2019-05-22T10:48:47.494Z,19.97
2019-05-22T10:51:16.635Z,20.17
2019-05-22T10:53:45.896Z,20.28
2019-05-22T10:56:15.067Z,20.40
2019-05-22T10:58:44.221Z,20.32
2019-05-22T11:01:13.885Z,20.32
2019-05-22T11:03:43.085Z,20.40
2019-05-22T11:06:12.621Z,20.48
2019-05-22T11:08:41.376Z,20.51
2019-05-22T11:11:10.880Z,20.56
2019-05-22T11:13:40.342Z,20.61
2019-05-22T11:16:09.917Z,20.62
2019-05-22T11:18:39.764Z,20.63
2019-05-22T11:21:09.366Z,20.55
2019-05-22T11:23:51.472Z,20.73
2019-05-22T11:26:09.818Z,20.88
2019-05-22T11:28:38.291Z,20.86
2019-05-22T11:31:08.100Z,20.99
2019-05-22T11:33:37.255Z,20.61
2019-05-22T11:36:06.426Z,20.82
2019-05-22T11:38:35.816Z,21.00
2019-05-22T11:41:05.729Z,21.04
2019-05-22T11:43:34.917Z,21.16
2019-05-22T11:46:04.991Z,21.22
2019-05-22T11:48:34.514Z,21.11
2019-05-22T11:51:03.661Z,21.01
2019-05-22T11:53:32.775Z,21.29
2019-05-22T11:56:02.306Z,21.19
2019-05-22T11:58:30.715Z,20.93
2019-05-22T12:01:00.379Z,20.74
2019-05-22T12:03:31.453Z,20.82
2019-05-22T12:06:00.646Z,20.82
2019-05-22T12:08:30.127Z,20.92
2019-05-22T12:10:59.622Z,21.04
2019-05-22T12:13:28.459Z,21.22
2019-05-22T12:15:58.453Z,21.18
2019-05-22T12:18:28.346Z,21.20
2019-05-22T12:20:57.469Z,20.88
2019-05-22T12:23:27.158Z,20.91
2019-05-22T12:25:56.285Z,21.04
2019-05-22T12:28:25.672Z,20.84
2019-05-22T12:30:56.404Z,21.15
2019-05-22T12:33:26.071Z,21.48
2019-05-22T12:35:55.649Z,21.72
2019-05-22T12:38:27.174Z,21.89
2019-05-22T12:40:57.661Z,22.16
2019-05-22T12:43:28.558Z,22.02
2019-05-22T12:45:57.815Z,21.74
2019-05-22T12:48:28.091Z,21.43
2019-05-22T12:50:58.079Z,21.12
2019-05-22T12:53:27.202Z,20.85
2019-05-22T12:55:56.667Z,20.65
2019-05-22T12:58:25.378Z,20.47
2019-05-22T13:00:54.427Z,20.69
2019-05-22T13:03:24.354Z,20.74
2019-05-22T13:05:53.919Z,20.64
2019-05-22T13:08:23.893Z,20.89
2019-05-22T13:10:53.394Z,20.73
2019-05-22T13:13:22.601Z,20.33
2019-05-22T13:15:52.415Z,20.07
2019-05-22T13:18:22.649Z,19.88
2019-05-22T13:20:52.906Z,19.76
2019-05-22T13:23:24.990Z,19.73
2019-05-22T13:25:54.818Z,19.85
2019-05-22T13:28:26.153Z,20.16
2019-05-22T13:30:56.324Z,20.44
2019-05-22T13:33:27.642Z,20.43
2019-05-22T13:35:57.574Z,20.69
2019-05-22T13:38:27.471Z,20.96
2019-05-22T13:40:57.201Z,21.06
2019-05-22T13:43:27.420Z,20.81
2019-05-22T13:45:56.990Z,20.47
2019-05-22T13:48:26.201Z,20.33
2019-05-22T13:50:56.654Z,20.22
2019-05-22T13:53:25.954Z,20.12
2019-05-22T13:55:55.819Z,20.00
2019-05-22T13:58:26.269Z,19.91
2019-05-22T14:00:55.481Z,19.75
2019-05-22T14:03:24.844Z,19.78
2019-05-22T14:05:54.730Z,19.98
2019-05-22T14:08:24.557Z,20.31
2019-05-22T14:10:53.840Z,20.54
2019-05-22T14:13:25.518Z,20.69
2019-05-22T14:15:57.330Z,20.81
2019-05-22T14:18:25.819Z,20.93
2019-05-22T14:20:54.964Z,21.10
2019-05-22T14:23:24.423Z,21.20
2019-05-22T14:25:53.015Z,21.24
2019-05-22T14:28:22.635Z,21.21
2019-05-22T14:30:52.926Z,21.36
2019-05-22T14:33:22.342Z,21.13
2019-05-22T14:35:52.517Z,20.98
2019-05-22T14:38:21.876Z,21.23
2019-05-22T14:40:51.094Z,21.16
2019-05-22T14:43:20.291Z,21.15
2019-05-22T14:45:49.943Z,21.12
2019-05-22T14:48:19.195Z,20.81
2019-05-22T14:50:48.596Z,20.66
2019-05-22T14:53:18.173Z,20.93
2019-05-22T14:55:46.953Z,20.99
2019-05-22T14:58:16.929Z,21.05
2019-05-22T15:00:46.583Z,21.18
2019-05-22T15:03:16.583Z,21.26
2019-05-22T15:05:45.963Z,21.07
2019-05-22T15:08:14.407Z,20.90
2019-05-22T15:10:44.163Z,21.06
2019-05-22T15:13:13.793Z,21.15
2019-05-22T15:15:43.350Z,21.32
2019-05-22T15:18:11.755Z,21.43
2019-05-22T15:20:42.748Z,21.58
2019-05-22T15:23:11.878Z,21.65
2019-05-22T15:25:41.089Z,21.48
2019-05-22T15:28:10.215Z,21.67
2019-05-22T15:30:39.775Z,21.54
2019-05-22T15:33:10.465Z,21.19
2019-05-22T15:35:40.026Z,21.07
2019-05-22T15:38:10.352Z,21.41
2019-05-22T15:40:40.254Z,21.35
2019-05-22T15:43:10.796Z,21.11
2019-05-22T15:45:40.174Z,21.20
2019-05-22T15:48:13.563Z,21.26
2019-05-22T15:50:44.740Z,21.43
2019-05-22T15:53:15.447Z,21.52
2019-05-22T15:55:46.395Z,21.47
2019-05-22T15:58:17.175Z,21.36
2019-05-22T16:00:47.388Z,21.26
2019-05-22T16:03:22.504Z,21.15
2019-05-22T16:05:52.525Z,21.02
2019-05-22T16:08:21.985Z,21.00
2019-05-22T16:10:52.171Z,20.97
2019-05-22T16:13:23.094Z,21.06
2019-05-22T16:15:54.518Z,21.16
2019-05-22T16:18:32.056Z,21.35
2019-05-22T16:21:02.545Z,21.44
2019-05-22T16:23:34.099Z,21.49
2019-05-22T16:26:06.227Z,21.52
2019-05-22T16:28:37.080Z,21.51
2019-05-22T16:31:09.928Z,21.50
2019-05-22T16:33:41.552Z,21.56
2019-05-22T16:36:12.100Z,21.57
2019-05-22T16:38:43.378Z,21.58
2019-05-22T16:41:13.037Z,21.48
2019-05-22T16:43:49.729Z,21.34
2019-05-22T16:46:16.592Z,21.37
2019-05-22T16:48:47.868Z,21.39
2019-05-22T16:51:17.732Z,21.44
2019-05-22T16:53:55.646Z,21.45
2019-05-22T16:56:26.264Z,21.44
2019-05-22T16:58:55.959Z,21.47
2019-05-22T17:01:27.199Z,21.50
2019-05-22T17:03:59.953Z,21.57
2019-05-22T17:06:30.237Z,21.52
2019-05-22T17:09:00.461Z,21.38
2019-05-22T17:11:30.338Z,21.33
2019-05-22T17:14:03.130Z,21.31
2019-05-22T17:16:37.316Z,21.28
2019-05-22T17:19:25.590Z,21.35
2019-05-22T17:21:39.462Z,21.30
2019-05-22T17:24:10.553Z,21.24
2019-05-22T17:26:39.962Z,21.22
2019-05-22T17:29:08.723Z,21.14
2019-05-22T17:31:37.877Z,21.05
2019-05-22T17:34:08.996Z,20.83
2019-05-22T17:36:38.566Z,20.78
2019-05-22T17:39:09.636Z,20.65
2019-05-22T17:41:41.285Z,20.47
2019-05-22T17:44:12.061Z,20.37
2019-05-22T17:46:42.241Z,20.24
2019-05-22T17:49:11.429Z,20.15
2019-05-22T17:51:40.900Z,20.09
2019-05-22T17:54:09.760Z,20.03
2019-05-22T17:56:39.531Z,19.90
2019-05-22T17:59:08.921Z,19.72
2019-05-22T18:01:38.411Z,19.61
2019-05-22T18:04:07.570Z,19.38
2019-05-22T18:06:36.686Z,19.25
2019-05-22T18:09:07.043Z,19.07
2019-05-22T18:11:36.799Z,18.87
2019-05-22T18:14:05.946Z,18.68
2019-05-22T18:16:35.109Z,18.49
2019-05-22T18:19:05.267Z,18.33
2019-05-22T18:21:35.652Z,18.20
2019-05-22T18:24:06.511Z,18.14
2019-05-22T18:26:36.017Z,18.01
2019-05-22T18:29:05.228Z,17.86
2019-05-22T18:31:34.805Z,17.76
2019-05-22T18:34:03.209Z,17.64
2019-05-22T18:36:32.285Z,17.52
2019-05-22T18:39:01.425Z,17.42
2019-05-22T18:41:30.827Z,17.29
2019-05-22T18:44:00.087Z,17.15
2019-05-22T18:46:29.300Z,17.00
2019-05-22T18:48:58.426Z,16.86
2019-05-22T18:51:28.264Z,16.80
2019-05-22T18:53:57.399Z,16.76
2019-05-22T18:56:26.690Z,16.68
2019-05-22T18:58:56.225Z,16.58
2019-05-22T19:01:25.473Z,16.54
2019-05-22T19:03:54.586Z,16.43
2019-05-22T19:06:30.210Z,16.34
2019-05-22T19:08:54.803Z,16.24
2019-05-22T19:11:25.774Z,16.20
2019-05-22T19:13:55.142Z,16.13
2019-05-22T19:16:24.531Z,16.08
2019-05-22T19:18:53.748Z,16.00
2019-05-22T19:21:22.888Z,15.91
2019-05-22T19:23:52.108Z,15.80
2019-05-22T19:26:22.099Z,15.68
2019-05-22T19:28:51.301Z,15.59
2019-05-22T19:31:20.446Z,15.53
2019-05-22T19:33:49.640Z,15.46
2019-05-22T19:36:18.928Z,15.43
2019-05-22T19:38:48.325Z,15.39
2019-05-22T19:41:17.592Z,15.33
2019-05-22T19:43:46.899Z,15.30
2019-05-22T19:46:16.155Z,15.25
2019-05-22T19:48:45.307Z,15.23
2019-05-22T19:51:17.306Z,15.18
2019-05-22T19:53:47.772Z,15.14
2019-05-22T19:56:17.631Z,15.11
2019-05-22T19:58:47.024Z,15.04
2019-05-22T20:01:16.157Z,14.99
2019-05-22T20:03:45.282Z,14.96
2019-05-22T20:06:14.410Z,14.90
2019-05-22T20:08:45.013Z,14.88
2019-05-22T20:11:14.205Z,14.84
2019-05-22T20:13:43.489Z,14.82
2019-05-22T20:16:12.856Z,14.77
2019-05-22T20:18:42.717Z,14.73
2019-05-22T20:21:12.004Z,14.68
2019-05-22T20:23:41.406Z,14.57
2019-05-22T20:26:10.695Z,14.49
2019-05-22T20:28:39.880Z,14.41
2019-05-22T20:31:09.182Z,14.37
2019-05-22T20:33:38.297Z,14.33
2019-05-22T20:36:08.827Z,14.29
2019-05-22T20:38:38.419Z,14.23
2019-05-22T20:41:08.113Z,14.18
2019-05-22T20:43:37.792Z,14.13
2019-05-22T20:46:07.159Z,14.06
2019-05-22T20:48:36.900Z,14.00
2019-05-22T20:51:07.736Z,13.95
2019-05-22T20:53:52.841Z,13.86
2019-05-22T20:56:11.037Z,13.83
2019-05-22T20:58:40.754Z,13.78
2019-05-22T21:01:09.151Z,13.76
2019-05-22T21:03:39.677Z,13.75
2019-05-22T21:06:10.811Z,13.72
2019-05-22T21:08:40.115Z,13.68
2019-05-22T21:11:09.470Z,13.66
2019-05-22T21:13:39.787Z,13.63
2019-05-22T21:16:09.410Z,13.60
2019-05-22T21:18:40.325Z,13.58
2019-05-22T21:21:09.442Z,13.54
2019-05-22T21:23:38.654Z,13.46
2019-05-22T21:26:08.513Z,13.39
2019-05-22T21:28:39.040Z,13.33
2019-05-22T21:31:08.173Z,13.24
2019-05-22T21:33:37.774Z,13.16
2019-05-22T21:36:09.095Z,13.08
2019-05-22T21:38:38.409Z,13.01
2019-05-22T21:41:08.026Z,12.98
2019-05-22T21:43:37.281Z,12.96
2019-05-22T21:46:06.794Z,12.93
2019-05-22T21:48:36.183Z,12.88
2019-05-22T21:51:05.369Z,12.85
2019-05-22T21:53:35.646Z,12.77
2019-05-22T21:56:06.333Z,12.66
2019-05-22T21:58:35.976Z,12.57
2019-05-22T22:01:13.457Z,12.54
2019-05-22T22:03:47.660Z,12.50
2019-05-22T22:06:17.417Z,12.44
2019-05-22T22:08:45.836Z,12.41
2019-05-22T22:11:15.146Z,12.41
2019-05-22T22:13:44.441Z,12.40
2019-05-22T22:16:13.667Z,12.36
2019-05-22T22:18:43.048Z,12.32
2019-05-22T22:21:13.322Z,12.28
2019-05-22T22:23:44.608Z,12.19
2019-05-22T22:26:25.436Z,12.05
2019-05-22T22:28:44.503Z,11.94
2019-05-22T22:31:15.720Z,11.81
2019-05-22T22:33:47.553Z,11.69
2019-05-22T22:36:16.752Z,11.58
2019-05-22T22:38:46.357Z,11.50
2019-05-22T22:41:15.716Z,11.43
2019-05-22T22:43:46.571Z,11.37
2019-05-22T22:46:23.082Z,11.33
2019-05-22T22:48:54.018Z,11.28
2019-05-22T22:51:24.371Z,11.16
2019-05-22T22:53:53.565Z,11.00
2019-05-22T22:56:23.226Z,10.86
2019-05-22T22:58:52.949Z,10.79
2019-05-22T23:01:27.343Z,10.77
2019-05-22T23:03:59.170Z,10.78
2019-05-22T23:06:28.335Z,10.80
2019-05-22T23:08:57.543Z,10.80
2019-05-22T23:11:28.379Z,10.86
2019-05-22T23:14:00.063Z,10.88
2019-05-22T23:16:29.627Z,10.88
2019-05-22T23:19:15.777Z,10.91
2019-05-22T23:21:45.359Z,10.85
2019-05-22T23:24:16.579Z,10.79
2019-05-22T23:26:46.018Z,10.72
2019-05-22T23:29:17.023Z,10.60
2019-05-22T23:31:46.414Z,10.51
2019-05-22T23:34:15.707Z,10.47
2019-05-22T23:36:45.195Z,10.44
2019-05-22T23:39:15.129Z,10.43
2019-05-22T23:41:45.949Z,10.39
2019-05-22T23:44:18.621Z,10.36
2019-05-22T23:46:47.808Z,10.39
2019-05-22T23:49:16.917Z,10.41
2019-05-22T23:51:46.181Z,10.41
2019-05-22T23:54:17.055Z,10.38
2019-05-22T23:56:46.513Z,10.34
2019-05-22T23:59:16.923Z,10.30
